createdAt,value
2023-02-19T00:00:02.552Z,80.33
2023-02-19T00:05:04.473Z,79.69
2023-02-19T00:10:06.465Z,80.11
2023-02-19T00:15:08.104Z,79.99
2023-02-19T00:20:10.039Z,79.93
2023-02-19T00:25:11.644Z,78.37
2023-02-19T00:30:13.665Z,79.24
2023-02-19T00:35:15.396Z,79.67
2023-02-19T00:40:17.276Z,79.11
2023-02-19T00:45:19.238Z,78.91
2023-02-19T00:50:20.901Z,78.26
2023-02-19T00:55:22.604Z,77.94
2023-02-19T01:00:24.311Z,78.26
2023-02-19T01:05:25.999Z,78.62
2023-02-19T01:10:27.738Z,77.81
2023-02-19T01:15:29.359Z,79.02
2023-02-19T01:20:31.369Z,81.14
2023-02-19T01:25:33.065Z,79.55
2023-02-19T01:30:37.573Z,80.37
2023-02-19T01:35:39.856Z,80.81
2023-02-19T01:40:41.565Z,79.53
2023-02-19T01:45:46.643Z,80.01
2023-02-19T01:50:52.816Z,79.75
2023-02-19T01:55:58.815Z,79.60
2023-02-19T02:01:03.119Z,79.70
2023-02-19T02:06:08.116Z,80.15
2023-02-19T02:11:10.153Z,80.19
2023-02-19T02:16:30.139Z,81.12
2023-02-19T02:22:01.791Z,79.54
2023-02-19T02:27:35.715Z,79.63
2023-02-19T02:32:57.465Z,79.32
2023-02-19T02:38:03.090Z,79.00
2023-02-19T02:43:04.769Z,79.24
2023-02-19T02:48:43.534Z,79.07
2023-02-19T02:54:09.931Z,78.48
2023-02-19T02:59:13.756Z,78.99
2023-02-19T03:04:30.129Z,79.79
2023-02-19T03:09:43.173Z,80.69
2023-02-19T03:15:09.597Z,79.84
2023-02-19T03:20:16.126Z,80.41
2023-02-19T03:25:40.559Z,80.35
2023-02-19T03:30:47.249Z,80.89
2023-02-19T03:36:01.067Z,80.48
2023-02-19T03:41:31.225Z,80.80
2023-02-19T03:47:05.586Z,81.50
2023-02-19T03:52:16.627Z,81.22
2023-02-19T03:57:24.087Z,80.69
2023-02-19T04:02:38.251Z,80.83
2023-02-19T04:07:45.710Z,80.39
2023-02-19T04:13:11.539Z,80.63
2023-02-19T04:18:17.916Z,80.50
2023-02-19T04:23:24.080Z,79.99
2023-02-19T04:28:25.949Z,80.04
2023-02-19T04:33:27.680Z,81.22
2023-02-19T04:38:29.376Z,80.24
2023-02-19T04:43:31.061Z,80.95
2023-02-19T04:48:32.744Z,80.90
2023-02-19T04:53:35.015Z,80.31
2023-02-19T04:58:36.994Z,82.06
2023-02-19T05:03:39.077Z,81.66
2023-02-19T05:08:50.608Z,81.59
2023-02-19T05:13:52.310Z,82.13
2023-02-19T05:18:54.238Z,82.08
2023-02-19T05:23:55.952Z,82.53
2023-02-19T05:28:57.678Z,82.50
2023-02-19T05:33:59.891Z,81.73
2023-02-19T05:39:01.580Z,83.00
2023-02-19T05:44:03.218Z,82.90
2023-02-19T05:49:04.910Z,84.03
2023-02-19T05:54:07.696Z,83.48
2023-02-19T05:59:21.255Z,83.23
2023-02-19T06:04:23.583Z,82.86
2023-02-19T06:09:25.295Z,83.61
2023-02-19T06:14:27.045Z,83.62
2023-02-19T06:19:28.673Z,83.75
2023-02-19T06:24:30.652Z,83.22
2023-02-19T06:29:32.855Z,82.52
2023-02-19T06:34:35.166Z,84.02
2023-02-19T06:39:37.072Z,83.35
2023-02-19T06:44:38.750Z,84.39
2023-02-19T06:49:40.803Z,83.50
2023-02-19T06:54:42.525Z,84.14
2023-02-19T06:59:44.635Z,83.90
2023-02-19T07:04:46.314Z,83.43
2023-02-19T07:09:48.050Z,84.38
2023-02-19T07:14:49.736Z,83.86
2023-02-19T07:19:51.341Z,85.33
2023-02-19T07:24:53.009Z,84.17
2023-02-19T07:29:54.690Z,85.11
2023-02-19T07:34:56.326Z,84.96
2023-02-19T07:39:58.005Z,86.18
2023-02-19T07:45:00.659Z,87.27
2023-02-19T07:50:02.457Z,85.69
2023-02-19T07:55:04.325Z,86.22
2023-02-19T08:00:06.513Z,86.97
2023-02-19T08:05:08.252Z,86.20
2023-02-19T08:10:28.455Z,87.31
2023-02-19T08:15:30.628Z,87.31
2023-02-19T08:20:32.330Z,87.41
2023-02-19T08:25:34.395Z,86.85
2023-02-19T08:30:38.431Z,86.26
2023-02-19T08:35:42.986Z,86.58
2023-02-19T08:40:44.642Z,86.44
2023-02-19T08:45:47.648Z,87.47
2023-02-19T08:50:57.594Z,87.33
2023-02-19T08:55:59.660Z,87.97
2023-02-19T09:01:01.333Z,87.98
2023-02-19T09:06:03.289Z,87.14
2023-02-19T09:11:07.194Z,87.55
2023-02-19T09:16:09.971Z,88.24
2023-02-19T09:21:11.912Z,88.07
2023-02-19T09:26:14.147Z,88.86
2023-02-19T09:31:17.059Z,89.92
2023-02-19T09:36:19.595Z,89.49
2023-02-19T09:41:47.437Z,89.39
2023-02-19T09:46:51.823Z,88.82
2023-02-19T09:52:12.334Z,87.04
2023-02-19T09:57:16.652Z,86.09
2023-02-19T10:02:25.797Z,85.79
2023-02-19T10:07:38.493Z,85.42
2023-02-19T10:12:46.151Z,82.88
2023-02-19T10:17:47.971Z,83.51
2023-02-19T10:22:49.902Z,83.44
2023-02-19T10:27:51.573Z,81.63
2023-02-19T10:33:14.618Z,82.81
2023-02-19T10:38:17.756Z,82.04
2023-02-19T10:43:32.060Z,81.53
2023-02-19T10:48:47.778Z,81.29
2023-02-19T10:53:52.206Z,80.14
2023-02-19T10:58:54.111Z,80.51
2023-02-19T11:04:17.714Z,80.74
2023-02-19T11:09:31.657Z,79.74
2023-02-19T11:14:35.111Z,79.70
2023-02-19T11:19:49.085Z,76.35
2023-02-19T11:24:55.892Z,72.49
2023-02-19T11:30:26.866Z,77.11
2023-02-19T11:35:31.500Z,76.72
2023-02-19T11:40:45.360Z,76.62
2023-02-19T11:46:03.775Z,72.87
2023-02-19T11:51:31.893Z,72.84
2023-02-19T11:56:37.287Z,68.35
2023-02-19T12:01:55.788Z,74.67
2023-02-19T12:07:35.110Z,69.41
2023-02-19T12:12:56.244Z,68.75
2023-02-19T12:18:26.862Z,67.36
2023-02-19T12:24:06.804Z,67.52
2023-02-19T12:29:22.033Z,74.21
2023-02-19T12:34:51.195Z,72.54
2023-02-19T12:39:59.234Z,73.60
2023-02-19T12:45:15.635Z,72.95
2023-02-19T12:50:24.003Z,68.82
2023-02-19T12:55:41.299Z,71.17
2023-02-19T13:00:50.588Z,60.66
2023-02-19T13:06:00.925Z,55.18
2023-02-19T13:11:09.574Z,50.31
2023-02-19T13:16:18.735Z,49.31
2023-02-19T13:21:43.378Z,53.89
2023-02-19T13:27:09.084Z,51.29
2023-02-19T13:32:27.774Z,48.63
2023-02-19T13:37:34.721Z,45.38
2023-02-19T13:42:37.462Z,40.92
2023-02-19T13:47:54.518Z,42.60
2023-02-19T13:53:02.105Z,40.26
2023-02-19T13:58:52.292Z,38.83
2023-02-19T14:04:07.277Z,43.87
2023-02-19T14:09:35.561Z,46.24
2023-02-19T14:14:39.548Z,46.71
2023-02-19T14:19:51.914Z,48.43
2023-02-19T14:24:55.218Z,48.67
2023-02-19T14:29:59.745Z,49.47
2023-02-19T14:35:02.096Z,49.81
2023-02-19T14:40:05.981Z,51.84
2023-02-19T14:45:09.027Z,51.73
2023-02-19T14:50:26.715Z,51.40
2023-02-19T14:55:40.040Z,51.67
2023-02-19T15:00:43.630Z,53.27
2023-02-19T15:05:47.748Z,53.50
2023-02-19T15:10:50.064Z,53.60
2023-02-19T15:15:53.618Z,54.26
2023-02-19T15:21:05.232Z,53.07
2023-02-19T15:26:22.942Z,53.62
2023-02-19T15:31:25.474Z,53.36
2023-02-19T15:36:35.107Z,53.50
2023-02-19T15:41:37.819Z,53.02
2023-02-19T15:46:43.761Z,53.06
2023-02-19T15:51:58.178Z,54.52
2023-02-19T15:57:06.562Z,54.60
2023-02-19T16:02:16.170Z,54.02
2023-02-19T16:07:32.672Z,53.66
2023-02-19T16:12:35.386Z,54.77
2023-02-19T16:17:42.879Z,53.31
2023-02-19T16:22:45.356Z,54.19
2023-02-19T16:27:47.746Z,54.64
2023-02-19T16:33:28.921Z,55.08
2023-02-19T16:38:31.478Z,54.88
2023-02-19T16:43:42.192Z,54.78
2023-02-19T16:48:46.017Z,53.63
2023-02-19T16:53:48.694Z,54.54
2023-02-19T16:58:52.482Z,53.32
2023-02-19T17:04:01.877Z,54.80
2023-02-19T17:09:06.484Z,55.46
2023-02-19T17:14:09.898Z,55.39
2023-02-19T17:19:21.915Z,55.78
2023-02-19T17:24:25.302Z,56.45
2023-02-19T17:29:29.124Z,57.60
2023-02-19T17:34:31.831Z,57.02
2023-02-19T17:39:34.312Z,56.86
2023-02-19T17:44:36.581Z,57.63
2023-02-19T17:49:40.029Z,58.02
2023-02-19T17:54:43.558Z,58.50
2023-02-19T17:59:47.324Z,56.76
2023-02-19T18:04:50.031Z,51.80
2023-02-19T18:09:52.616Z,50.87
2023-02-19T18:14:56.782Z,50.11
2023-02-19T18:20:01.902Z,50.27
2023-02-19T18:25:08.807Z,49.42
2023-02-19T18:30:13.035Z,48.82
2023-02-19T18:35:17.513Z,49.60
2023-02-19T18:40:28.030Z,50.78
2023-02-19T18:45:41.179Z,50.45
2023-02-19T18:50:44.881Z,49.63
2023-02-19T18:55:47.612Z,51.81
2023-02-19T19:00:50.267Z,50.06
2023-02-19T19:05:53.245Z,48.49
2023-02-19T19:10:56.758Z,49.38
2023-02-19T19:16:00.104Z,52.10
2023-02-19T19:21:05.304Z,52.27
2023-02-19T19:26:08.353Z,53.39
2023-02-19T19:31:13.204Z,53.66
2023-02-19T19:36:21.228Z,54.39
2023-02-19T19:41:24.223Z,55.31
2023-02-19T19:46:27.678Z,55.95
2023-02-19T19:51:34.723Z,56.19
2023-02-19T19:56:47.140Z,57.14
2023-02-19T20:01:54.711Z,57.89
2023-02-19T20:07:01.490Z,58.07
2023-02-19T20:12:05.201Z,58.60
2023-02-19T20:17:10.187Z,58.74
2023-02-19T20:22:14.301Z,59.22
2023-02-19T20:27:17.344Z,58.59
2023-02-19T20:32:21.252Z,59.27
2023-02-19T20:37:23.545Z,59.22
2023-02-19T20:42:26.138Z,59.79
2023-02-19T20:47:28.579Z,59.62
2023-02-19T20:52:31.285Z,60.31
2023-02-19T20:57:33.794Z,60.50
2023-02-19T21:02:37.055Z,60.23
2023-02-19T21:07:40.009Z,61.11
2023-02-19T21:12:42.243Z,61.48
2023-02-19T21:17:48.064Z,61.43
2023-02-19T21:22:50.556Z,61.84
2023-02-19T21:27:54.308Z,62.01
2023-02-19T21:32:56.198Z,61.75
2023-02-19T21:37:58.123Z,61.68
2023-02-19T21:43:00.630Z,62.43
2023-02-19T21:48:03.072Z,63.42
2023-02-19T21:53:05.764Z,62.85
2023-02-19T21:58:08.253Z,62.62
2023-02-19T22:03:15.559Z,62.87
2023-02-19T22:08:17.573Z,62.81
2023-02-19T22:13:19.195Z,63.94
2023-02-19T22:18:20.857Z,63.87
2023-02-19T22:23:22.542Z,63.45
2023-02-19T22:28:24.730Z,64.22
2023-02-19T22:33:26.373Z,63.81
2023-02-19T22:38:27.940Z,64.87
2023-02-19T22:43:29.568Z,64.17
2023-02-19T22:48:31.490Z,64.12
2023-02-19T22:53:33.184Z,64.81
2023-02-19T22:58:34.826Z,64.52
2023-02-19T23:03:45.933Z,64.58
2023-02-19T23:08:47.682Z,65.68
2023-02-19T23:13:49.509Z,65.45
2023-02-19T23:18:51.472Z,65.46
2023-02-19T23:23:53.359Z,65.35
2023-02-19T23:28:54.998Z,65.05
2023-02-19T23:33:56.709Z,66.27
2023-02-19T23:38:58.398Z,67.05
2023-02-19T23:44:00.019Z,67.03
2023-02-19T23:49:01.648Z,66.53
2023-02-19T23:54:03.511Z,66.26
2023-02-19T23:59:05.956Z,66.61
